createdAt,value
2022-10-04T00:00:44.976Z,10.4
2022-10-04T00:01:45.330Z,10.4
2022-10-04T00:02:45.242Z,10.4
2022-10-04T00:03:45.280Z,10.48
2022-10-04T00:04:45.383Z,10.48
2022-10-04T00:05:45.482Z,10.48
2022-10-04T00:06:45.586Z,10.48
2022-10-04T00:07:45.688Z,10.48
2022-10-04T00:08:45.853Z,10.4
2022-10-04T00:09:45.939Z,10.32
2022-10-04T00:10:46.046Z,10.4
2022-10-04T00:11:46.144Z,10.48
2022-10-04T00:12:46.251Z,10.4
2022-10-04T00:13:46.352Z,10.32
2022-10-04T00:14:46.512Z,10.32
2022-10-04T00:15:46.705Z,10.4
2022-10-04T00:16:46.754Z,10.32
2022-10-04T00:17:46.903Z,10.32
2022-10-04T00:18:47.004Z,10.48
2022-10-04T00:19:47.144Z,10.639999
2022-10-04T00:20:47.262Z,10.4
2022-10-04T00:21:47.407Z,10.4
2022-10-04T00:22:47.516Z,10.4
2022-10-04T00:23:47.664Z,10.4
2022-10-04T00:24:47.766Z,10.32
2022-10-04T00:25:47.869Z,10.32
2022-10-04T00:26:48.024Z,10.32
2022-10-04T00:27:48.179Z,10.32
2022-10-04T00:28:48.320Z,10.32
2022-10-04T00:29:48.431Z,10.32
2022-10-04T00:30:48.577Z,10.48
2022-10-04T00:31:48.819Z,10.48
2022-10-04T00:32:48.829Z,10.4
2022-10-04T00:33:48.927Z,10.4
2022-10-04T00:34:49.041Z,10.32
2022-10-04T00:35:49.185Z,10.48
2022-10-04T00:36:49.332Z,10.48
2022-10-04T00:37:49.489Z,10.48
2022-10-04T00:38:49.595Z,10.639999
2022-10-04T00:39:49.690Z,10.48
2022-10-04T00:40:49.795Z,10.48
2022-10-04T00:41:49.940Z,10.48
2022-10-04T00:42:50.045Z,10.48
2022-10-04T00:43:50.195Z,10.48
2022-10-04T00:44:50.327Z,10.48
2022-10-04T00:45:50.473Z,10.48
2022-10-04T00:46:50.551Z,10.48
2022-10-04T00:47:50.655Z,10.4
2022-10-04T00:48:50.816Z,10.4
2022-10-04T00:49:50.954Z,10.4
2022-10-04T00:50:51.113Z,10.48
2022-10-04T00:51:51.215Z,10.4
2022-10-04T00:52:51.315Z,10.32
2022-10-04T00:53:51.416Z,10.32
2022-10-04T00:54:51.564Z,10.32
2022-10-04T00:55:51.667Z,10.32
2022-10-04T00:56:51.819Z,10.32
2022-10-04T00:57:51.921Z,10.32
2022-10-04T00:58:52.026Z,10.32
2022-10-04T00:59:52.139Z,10.4
2022-10-04T01:00:52.325Z,10.4
2022-10-04T01:01:52.409Z,10.48
2022-10-04T01:02:52.486Z,10.4
2022-10-04T01:03:52.582Z,10.48
2022-10-04T01:04:52.730Z,10.48
2022-10-04T01:05:52.833Z,10.48
2022-10-04T01:06:52.987Z,10.4
2022-10-04T01:07:53.098Z,10.48
2022-10-04T01:08:53.194Z,10.4
2022-10-04T01:09:53.343Z,10.4
2022-10-04T01:10:53.489Z,10.32
2022-10-04T01:11:53.593Z,10.4
2022-10-04T01:12:53.747Z,10.4
2022-10-04T01:13:53.847Z,10.639999
2022-10-04T01:14:53.955Z,10.48
2022-10-04T01:15:54.214Z,10.48
2022-10-04T01:16:54.254Z,10.639999
2022-10-04T01:17:54.352Z,10.48
2022-10-04T01:18:54.504Z,10.48
2022-10-04T01:19:54.613Z,10.4
2022-10-04T01:20:54.764Z,10.32
2022-10-04T01:21:54.911Z,10.48
2022-10-04T01:22:55.013Z,10.48
2022-10-04T01:23:55.116Z,10.4
2022-10-04T01:24:55.266Z,10.32
2022-10-04T01:25:55.366Z,10.32
2022-10-04T01:26:55.467Z,10.4
2022-10-04T01:27:55.668Z,10.4
2022-10-04T01:28:55.772Z,10.719999
2022-10-04T01:29:55.944Z,10.639999
2022-10-04T01:30:56.057Z,10.48
2022-10-04T01:31:56.273Z,10.4
2022-10-04T01:32:56.327Z,10.4
2022-10-04T01:33:56.429Z,10.4
2022-10-04T01:34:56.531Z,10.4
2022-10-04T01:35:56.631Z,10.4
2022-10-04T01:36:56.735Z,10.4
2022-10-04T01:37:56.835Z,10.4
2022-10-04T01:38:56.989Z,10.4
2022-10-04T01:39:57.145Z,10.48
2022-10-04T01:40:57.292Z,10.639999
2022-10-04T01:41:57.394Z,10.639999
2022-10-04T01:42:57.497Z,10.48
2022-10-04T01:43:57.656Z,10.48
2022-10-04T01:44:57.766Z,10.48
2022-10-04T01:45:57.941Z,10.48
2022-10-04T01:46:58.001Z,10.48
2022-10-04T01:47:58.154Z,10.48
2022-10-04T01:48:58.255Z,10.4
2022-10-04T01:49:58.356Z,10.4
2022-10-04T01:50:58.511Z,10.4
2022-10-04T01:51:58.613Z,10.32
2022-10-04T01:52:58.762Z,10.32
2022-10-04T01:53:58.864Z,10.32
2022-10-04T01:54:59.015Z,10.32
2022-10-04T01:55:59.168Z,10.48
2022-10-04T01:56:59.274Z,10.48
2022-10-04T01:57:59.372Z,10.48
2022-10-04T01:58:59.480Z,10.4
2022-10-04T01:59:59.587Z,10.4
2022-10-04T02:00:59.725Z,10.4
2022-10-04T02:01:59.779Z,10.4
2022-10-04T02:02:59.884Z,10.4
2022-10-04T02:04:00.038Z,10.48
2022-10-04T02:05:00.264Z,10.48
2022-10-04T02:06:00.234Z,10.4
2022-10-04T02:07:00.385Z,10.48
2022-10-04T02:08:00.537Z,10.48
2022-10-04T02:09:00.642Z,10.639999
2022-10-04T02:10:00.746Z,10.48
2022-10-04T02:11:00.892Z,10.4
2022-10-04T02:12:01.043Z,10.48
2022-10-04T02:13:01.199Z,10.32
2022-10-04T02:14:01.297Z,10.32
2022-10-04T02:15:01.416Z,10.4
2022-10-04T02:16:01.607Z,10.4
2022-10-04T02:17:01.653Z,10.32
2022-10-04T02:18:01.758Z,10.32
2022-10-04T02:19:01.857Z,10.32
2022-10-04T02:20:01.965Z,10.24
2022-10-04T02:21:02.117Z,10.32
2022-10-04T02:22:02.262Z,10.32
2022-10-04T02:23:02.366Z,10.32
2022-10-04T02:24:02.513Z,10.32
2022-10-04T02:25:02.681Z,10.4
2022-10-04T02:26:02.822Z,10.4
2022-10-04T02:27:02.920Z,10.32
2022-10-04T02:28:03.085Z,10.32
2022-10-04T02:29:03.174Z,10.32
2022-10-04T02:30:03.302Z,10.24
2022-10-04T02:31:03.423Z,10.32
2022-10-04T02:32:03.527Z,10.32
2022-10-04T02:33:03.685Z,10.32
2022-10-04T02:34:03.785Z,10.32
2022-10-04T02:35:03.933Z,10.32
2022-10-04T02:36:04.038Z,10.4
2022-10-04T02:37:04.189Z,10.48
2022-10-04T02:38:04.336Z,10.48
2022-10-04T02:39:04.482Z,10.4
2022-10-04T02:40:04.591Z,10.4
2022-10-04T02:41:04.699Z,10.4
2022-10-04T02:42:04.798Z,10.32
2022-10-04T02:43:04.896Z,10.32
2022-10-04T02:44:04.998Z,10.32
2022-10-04T02:45:05.159Z,10.24
2022-10-04T02:46:05.339Z,10.24
2022-10-04T02:47:05.410Z,10.24
2022-10-04T02:48:05.555Z,10.24
2022-10-04T02:49:05.654Z,10.32
2022-10-04T02:50:05.759Z,10.32
2022-10-04T02:51:05.864Z,10.32
2022-10-04T02:52:05.966Z,10.32
2022-10-04T02:53:06.066Z,10.4
2022-10-04T02:54:06.215Z,10.32
2022-10-04T02:55:06.365Z,10.32
2022-10-04T02:56:06.469Z,10.24
2022-10-04T02:57:06.566Z,10.32
2022-10-04T02:58:06.718Z,10.32
2022-10-04T02:59:06.870Z,10.32
2022-10-04T03:00:06.993Z,10.32
2022-10-04T03:01:07.178Z,10.24
2022-10-04T03:02:07.258Z,10.24
2022-10-04T03:03:07.381Z,10.24
2022-10-04T03:04:07.535Z,10.08
2022-10-04T03:05:07.635Z,10.32
2022-10-04T03:06:07.747Z,10.4
2022-10-04T03:07:07.838Z,10.32
2022-10-04T03:08:07.949Z,10.32
2022-10-04T03:09:08.098Z,10.24
2022-10-04T03:10:08.240Z,10.24
2022-10-04T03:11:08.349Z,10.24
2022-10-04T03:12:08.497Z,10.24
2022-10-04T03:13:08.596Z,10.08
2022-10-04T03:14:08.696Z,10.08
2022-10-04T03:15:08.864Z,10.08
2022-10-04T03:16:09.014Z,10.24
2022-10-04T03:17:09.127Z,10.08
2022-10-04T03:18:09.258Z,10.24
2022-10-04T03:19:09.352Z,10.24
2022-10-04T03:20:09.459Z,10.32
2022-10-04T03:21:09.608Z,10.32
2022-10-04T03:22:09.774Z,10.24
2022-10-04T03:23:09.861Z,10.08
2022-10-04T03:24:10.015Z,10.08
2022-10-04T03:25:10.163Z,10
2022-10-04T03:26:10.266Z,10
2022-10-04T03:27:10.374Z,10
2022-10-04T03:28:10.490Z,10
2022-10-04T03:29:10.593Z,10
2022-10-04T03:30:10.680Z,10
2022-10-04T03:31:10.900Z,10
2022-10-04T03:32:10.982Z,10.08
2022-10-04T03:33:11.079Z,10.08
2022-10-04T03:34:11.232Z,9.92
2022-10-04T03:35:11.379Z,9.92
2022-10-04T03:36:11.491Z,9.84
2022-10-04T03:37:11.586Z,9.679999
2022-10-04T03:38:11.733Z,9.599999
2022-10-04T03:39:11.837Z,9.599999
2022-10-04T03:40:11.939Z,9.36
2022-10-04T03:41:12.098Z,9.36
2022-10-04T03:42:12.219Z,9.36
2022-10-04T03:43:12.302Z,9.12
2022-10-04T03:44:12.447Z,9.28
2022-10-04T03:45:12.603Z,9.28
2022-10-04T03:46:12.796Z,9.28
2022-10-04T03:47:12.850Z,9.12
2022-10-04T03:48:13.009Z,9.12
2022-10-04T03:49:13.104Z,9.2
2022-10-04T03:50:13.204Z,9.12
2022-10-04T03:51:13.358Z,9.2
2022-10-04T03:52:13.513Z,9.28
2022-10-04T03:53:13.662Z,9.2
2022-10-04T03:54:13.763Z,9.12
2022-10-04T03:55:13.912Z,9.12
2022-10-04T03:56:14.020Z,9.04
2022-10-04T03:57:14.124Z,8.88
2022-10-04T03:58:14.273Z,9.04
2022-10-04T03:59:14.371Z,8.88
2022-10-04T04:00:14.474Z,8.88
2022-10-04T04:01:14.655Z,9.04
2022-10-04T04:02:14.765Z,8.88
2022-10-04T04:03:14.833Z,9.12
2022-10-04T04:04:14.979Z,9.12
2022-10-04T04:05:15.084Z,9.04
2022-10-04T04:06:15.188Z,9.04
2022-10-04T04:07:15.285Z,9.12
2022-10-04T04:08:15.387Z,9.12
2022-10-04T04:09:15.486Z,9.12
2022-10-04T04:10:16.842Z,9.12
2022-10-04T04:11:15.693Z,9.04
2022-10-04T04:12:15.849Z,9.12
2022-10-04T04:13:15.948Z,9.12
2022-10-04T04:14:16.096Z,9.12
2022-10-04T04:15:16.248Z,9.12
2022-10-04T04:16:16.441Z,9.2
2022-10-04T04:17:16.500Z,9.28
2022-10-04T04:18:16.661Z,9.12
2022-10-04T04:19:16.756Z,9.12
2022-10-04T04:20:16.864Z,9.2
2022-10-04T04:21:17.021Z,9.2
2022-10-04T04:22:17.111Z,9.12
2022-10-04T04:23:17.265Z,9.2
2022-10-04T04:24:17.415Z,9.2
2022-10-04T04:25:17.589Z,9.2
2022-10-04T04:26:17.725Z,9.2
2022-10-04T04:27:17.870Z,9.52
2022-10-04T04:28:18.121Z,9.36
2022-10-04T04:29:18.123Z,9.12
2022-10-04T04:30:18.223Z,9.04
2022-10-04T04:31:18.447Z,8.88
2022-10-04T04:32:18.530Z,9.04
2022-10-04T04:33:20.953Z,9.04
2022-10-04T04:34:18.786Z,9.12
2022-10-04T04:35:18.885Z,9.12
2022-10-04T04:36:18.987Z,9.12
2022-10-04T04:37:19.096Z,9.12
2022-10-04T04:38:19.193Z,9.12
2022-10-04T04:39:19.289Z,9.12
2022-10-04T04:40:19.391Z,9.12
2022-10-04T04:41:19.494Z,9.2
2022-10-04T04:42:19.597Z,9.2
2022-10-04T04:43:19.711Z,9.12
2022-10-04T04:44:19.809Z,9.2
2022-10-04T04:45:19.909Z,9.52
2022-10-04T04:46:27.368Z,9.36
2022-10-04T04:47:20.153Z,9.28
2022-10-04T04:48:20.310Z,9.52
2022-10-04T04:49:20.408Z,9.36
2022-10-04T04:50:20.513Z,9.52
2022-10-04T04:51:20.629Z,9.36
2022-10-04T04:52:20.781Z,9.52
2022-10-04T04:53:20.861Z,9.36
2022-10-04T04:54:20.964Z,9.36
2022-10-04T04:55:21.063Z,9.36
2022-10-04T04:56:21.165Z,9.28
2022-10-04T04:57:21.319Z,9.36
2022-10-04T04:58:21.419Z,9.599999
2022-10-04T04:59:21.529Z,9.36
2022-10-04T05:00:21.630Z,9.36
2022-10-04T05:01:21.821Z,9.36
2022-10-04T05:02:21.974Z,9.28
2022-10-04T05:03:22.084Z,9.28
2022-10-04T05:04:22.234Z,9.2
2022-10-04T05:05:22.388Z,9.36
2022-10-04T05:06:22.490Z,9.36
2022-10-04T05:07:22.585Z,9.36
2022-10-04T05:08:22.688Z,9.36
2022-10-04T05:09:22.792Z,9.28
2022-10-04T05:10:22.891Z,9.36
2022-10-04T05:11:23.000Z,9.2
2022-10-04T05:12:23.147Z,9.28
2022-10-04T05:13:23.252Z,9.12
2022-10-04T05:14:23.350Z,9.12
2022-10-04T05:15:23.449Z,9.12
2022-10-04T05:16:23.667Z,9.04
2022-10-04T05:17:23.702Z,9.12
2022-10-04T05:18:23.809Z,9.12
2022-10-04T05:19:23.961Z,9.04
2022-10-04T05:20:24.061Z,9.12
2022-10-04T05:21:24.213Z,9.2
2022-10-04T05:22:24.377Z,9.2
2022-10-04T05:23:24.464Z,9.28
2022-10-04T05:24:24.615Z,9.04
2022-10-04T05:25:24.721Z,8.88
2022-10-04T05:26:24.822Z,8.88
2022-10-04T05:27:24.924Z,9.04
2022-10-04T05:28:25.087Z,8.88
2022-10-04T05:29:25.135Z,9.04
2022-10-04T05:30:25.226Z,9.04
2022-10-04T05:31:25.396Z,9.04
2022-10-04T05:32:25.426Z,8.88
2022-10-04T05:33:25.531Z,9.04
2022-10-04T05:34:25.639Z,9.04
2022-10-04T05:35:25.733Z,9.2
2022-10-04T05:36:25.839Z,9.04
2022-10-04T05:37:25.936Z,9.04
2022-10-04T05:38:26.089Z,8.88
2022-10-04T05:39:26.242Z,8.8
2022-10-04T05:40:26.342Z,8.88
2022-10-04T05:41:29.107Z,8.88
2022-10-04T05:42:26.649Z,8.8
2022-10-04T05:43:26.764Z,8.72
2022-10-04T05:44:26.848Z,8.8
2022-10-04T05:45:27.030Z,8.72
2022-10-04T05:46:27.102Z,8.8
2022-10-04T05:47:27.254Z,8.88
2022-10-04T05:48:27.410Z,9.12
2022-10-04T05:49:27.509Z,9.2
2022-10-04T05:50:27.608Z,9.28
2022-10-04T05:51:27.708Z,9.36
2022-10-04T05:52:27.817Z,9.36
2022-10-04T05:53:27.967Z,9.28
2022-10-04T05:54:28.068Z,9.36
2022-10-04T05:55:28.180Z,9.28
2022-10-04T05:56:28.320Z,9.28
2022-10-04T05:57:28.424Z,9.36
2022-10-04T05:58:28.576Z,9.28
2022-10-04T05:59:28.726Z,9.12
2022-10-04T06:00:28.832Z,9.36
2022-10-04T06:01:29.089Z,9.2
2022-10-04T06:02:29.135Z,9.28
2022-10-04T06:03:29.239Z,9.28
2022-10-04T06:04:29.339Z,9.36
2022-10-04T06:05:29.518Z,9.52
2022-10-04T06:06:29.536Z,9.36
2022-10-04T06:07:29.639Z,9.2
2022-10-04T06:08:29.739Z,9.2
2022-10-04T06:09:29.887Z,9.36
2022-10-04T06:10:29.990Z,9.28
2022-10-04T06:11:30.103Z,9.28
2022-10-04T06:12:30.298Z,9.36
2022-10-04T06:13:30.394Z,9.36
2022-10-04T06:14:30.748Z,9.52
2022-10-04T06:15:30.858Z,9.599999
2022-10-04T06:16:31.027Z,9.599999
2022-10-04T06:17:31.152Z,9.84
2022-10-04T06:18:31.259Z,9.84
2022-10-04T06:19:31.671Z,9.92
2022-10-04T06:20:31.756Z,9.92
2022-10-04T06:21:31.665Z,10
2022-10-04T06:22:31.814Z,10
2022-10-04T06:23:31.966Z,10
2022-10-04T06:24:32.068Z,10.08
2022-10-04T06:25:32.221Z,10
2022-10-04T06:26:32.317Z,9.92
2022-10-04T06:27:32.423Z,10.08
2022-10-04T06:28:32.646Z,10.08
2022-10-04T06:29:32.727Z,10.24
2022-10-04T06:30:32.956Z,10.4
2022-10-04T06:31:33.025Z,10.719999
2022-10-04T06:32:33.180Z,10.639999
2022-10-04T06:33:33.331Z,10.719999
2022-10-04T06:34:33.436Z,10.639999
2022-10-04T06:35:33.535Z,10.719999
2022-10-04T06:36:33.644Z,10.8
2022-10-04T06:37:33.735Z,11.04
2022-10-04T06:38:33.891Z,11.28
2022-10-04T06:39:33.990Z,11.2
2022-10-04T06:40:34.092Z,11.2
2022-10-04T06:41:34.248Z,11.12
2022-10-04T06:42:34.398Z,11.2
2022-10-04T06:43:34.500Z,11.28
2022-10-04T06:44:34.646Z,11.44
2022-10-04T06:45:34.803Z,11.52
2022-10-04T06:46:35.058Z,11.599999
2022-10-04T06:47:35.060Z,11.52
2022-10-04T06:48:35.212Z,11.28
2022-10-04T06:49:35.311Z,11.2
2022-10-04T06:50:35.472Z,11.679999
2022-10-04T06:51:35.608Z,12
2022-10-04T06:52:35.775Z,11.84
2022-10-04T06:53:35.865Z,11.92
2022-10-04T06:54:35.970Z,12
2022-10-04T06:55:36.063Z,11.84
2022-10-04T06:56:36.167Z,12
2022-10-04T06:57:36.280Z,12
2022-10-04T06:58:36.424Z,11.84
2022-10-04T06:59:36.533Z,12.08
2022-10-04T07:00:36.688Z,11.92
2022-10-04T07:01:36.882Z,12
2022-10-04T07:02:37.005Z,11.599999
2022-10-04T07:03:37.081Z,11.599999
2022-10-04T07:04:56.073Z,11.679999
2022-10-04T07:05:37.340Z,11.84
2022-10-04T07:06:37.437Z,12
2022-10-04T07:07:37.591Z,12.08
2022-10-04T07:08:37.754Z,11.679999
2022-10-04T07:09:37.838Z,11.92
2022-10-04T07:10:37.945Z,12.08
2022-10-04T07:11:38.045Z,12.24
2022-10-04T07:12:38.150Z,12.08
2022-10-04T07:13:38.265Z,11.92
2022-10-04T07:14:38.396Z,11.679999
2022-10-04T07:15:38.610Z,12.08
2022-10-04T07:16:38.705Z,12.24
2022-10-04T07:17:38.857Z,12.08
2022-10-04T07:18:38.959Z,12
2022-10-04T07:19:39.112Z,11.92
2022-10-04T07:20:39.258Z,12
2022-10-04T07:21:39.361Z,11.679999
2022-10-04T07:22:39.464Z,11.599999
2022-10-04T07:23:39.565Z,11.92
2022-10-04T07:24:39.714Z,12.24
2022-10-04T07:25:39.821Z,12.24
2022-10-04T07:26:39.969Z,11.84
2022-10-04T07:27:40.073Z,11.679999
2022-10-04T07:28:40.311Z,11.679999
2022-10-04T07:29:42.174Z,11.599999
2022-10-04T07:30:40.481Z,11.679999
2022-10-04T07:31:40.644Z,11.679999
2022-10-04T07:32:40.686Z,12.32
2022-10-04T07:33:40.784Z,12.4
2022-10-04T07:34:41.114Z,12.24
2022-10-04T07:35:41.234Z,12.32
2022-10-04T07:36:41.391Z,12.639999
2022-10-04T07:37:41.491Z,12.48
2022-10-04T07:38:41.592Z,12.799999
2022-10-04T07:39:41.697Z,12.88
2022-10-04T07:40:42.044Z,13.04
2022-10-04T07:41:42.111Z,13.2
2022-10-04T07:42:42.003Z,13.04
2022-10-04T07:43:42.107Z,12.719999
2022-10-04T07:44:42.252Z,12.639999
2022-10-04T07:45:42.429Z,12.799999
2022-10-04T07:46:42.553Z,12.799999
2022-10-04T07:47:42.653Z,12.719999
2022-10-04T07:48:42.806Z,12.719999
2022-10-04T07:49:42.957Z,12.639999
2022-10-04T07:50:43.062Z,12.799999
2022-10-04T07:51:43.382Z,12.88
2022-10-04T07:52:43.267Z,12.88
2022-10-04T07:53:43.416Z,13.04
2022-10-04T07:54:43.519Z,12.719999
2022-10-04T07:55:43.615Z,12.88
2022-10-04T07:56:43.723Z,13.04
2022-10-04T07:57:43.869Z,12.48
2022-10-04T07:58:45.726Z,12.88
2022-10-04T07:59:44.086Z,13.2
2022-10-04T08:00:44.230Z,13.2
2022-10-04T08:01:44.516Z,13.44
2022-10-04T08:02:44.532Z,13.12
2022-10-04T08:03:44.540Z,13.52
2022-10-04T08:04:44.640Z,13.84
2022-10-04T08:05:44.742Z,13.52
2022-10-04T08:06:45.158Z,13.44
2022-10-04T08:07:44.987Z,12.799999
2022-10-04T08:08:45.412Z,13.2
2022-10-04T08:09:45.853Z,12.88
2022-10-04T08:10:45.408Z,13.04
2022-10-04T08:11:45.962Z,13.04
2022-10-04T08:12:45.690Z,13.52
2022-10-04T08:13:45.845Z,13.84
2022-10-04T08:14:45.997Z,13.679999
2022-10-04T08:15:46.453Z,13.92
2022-10-04T08:16:46.794Z,13.28
2022-10-04T08:17:46.451Z,13.92
2022-10-04T08:18:46.556Z,14.48
2022-10-04T08:19:46.707Z,13.84
2022-10-04T08:20:46.808Z,13.44
2022-10-04T08:21:46.963Z,13.92
2022-10-04T08:22:47.068Z,14.32
2022-10-04T08:23:47.220Z,13.44
2022-10-04T08:24:51.298Z,13.599999
2022-10-04T08:25:47.473Z,13.599999
2022-10-04T08:26:47.574Z,13.84
2022-10-04T08:27:47.728Z,13.84
2022-10-04T08:28:47.825Z,13.679999
2022-10-04T08:29:47.978Z,14.08
2022-10-04T08:30:48.140Z,13.92
2022-10-04T08:31:48.237Z,13.679999
2022-10-04T08:32:48.729Z,13.679999
2022-10-04T08:33:48.431Z,14
2022-10-04T08:34:48.580Z,14.4
2022-10-04T08:35:48.739Z,14.08
2022-10-04T08:36:48.852Z,13.679999
2022-10-04T08:37:48.992Z,14.08
2022-10-04T08:38:49.141Z,14.4
2022-10-04T08:39:49.244Z,14.48
2022-10-04T08:40:49.392Z,14.32
2022-10-04T08:41:49.544Z,14.4
2022-10-04T08:42:49.701Z,14.719999
2022-10-04T08:43:49.849Z,14.4
2022-10-04T08:44:50.017Z,14.639999
2022-10-04T08:45:50.156Z,14.719999
2022-10-04T08:46:50.396Z,14.48
2022-10-04T08:47:50.465Z,14.32
2022-10-04T08:48:50.607Z,14.24
2022-10-04T08:49:50.761Z,13.84
2022-10-04T08:50:50.867Z,13.84
2022-10-04T08:51:50.972Z,13.679999
2022-10-04T08:52:51.068Z,14.08
2022-10-04T08:53:51.167Z,14.799999
2022-10-04T08:54:51.315Z,15.12
2022-10-04T08:55:51.417Z,15.12
2022-10-04T08:56:51.518Z,14.799999
2022-10-04T08:57:51.619Z,14.88
2022-10-04T08:58:51.723Z,14.719999
2022-10-04T08:59:51.888Z,14.48
2022-10-04T09:00:52.029Z,14.799999
2022-10-04T09:01:52.234Z,15.04
2022-10-04T09:02:52.362Z,15.28
2022-10-04T09:03:52.384Z,15.28
2022-10-04T09:04:52.537Z,15.52
2022-10-04T09:05:52.638Z,15.92
2022-10-04T09:06:53.717Z,15.2
2022-10-04T09:07:52.843Z,15.2
2022-10-04T09:08:52.949Z,15.599999
2022-10-04T09:09:53.048Z,15.839999
2022-10-04T09:10:53.194Z,15.52
2022-10-04T09:11:53.303Z,15.839999
2022-10-04T09:12:53.445Z,15.839999
2022-10-04T09:13:53.603Z,15.599999
2022-10-04T09:14:53.733Z,15.12
2022-10-04T09:15:53.939Z,15.28
2022-10-04T09:16:54.000Z,15.2
2022-10-04T09:17:54.163Z,15.12
2022-10-04T09:18:54.309Z,15.52
2022-10-04T09:19:54.428Z,16.08
2022-10-04T09:20:54.516Z,16.32
2022-10-04T09:21:54.609Z,16.32
2022-10-04T09:22:54.715Z,16.32
2022-10-04T09:23:54.818Z,16.72
2022-10-04T09:24:54.921Z,15.839999
2022-10-04T09:25:55.022Z,15.839999
2022-10-04T09:26:55.119Z,15.839999
2022-10-04T09:27:55.543Z,16.24
2022-10-04T09:28:55.324Z,16.48
2022-10-04T09:29:55.486Z,16.4
2022-10-04T09:30:55.685Z,16.48
2022-10-04T09:31:55.792Z,16.4
2022-10-04T09:32:55.928Z,15.44
2022-10-04T09:33:56.034Z,15.2
2022-10-04T09:34:56.184Z,16
2022-10-04T09:35:56.291Z,16.24
2022-10-04T09:36:56.390Z,16.48
2022-10-04T09:37:56.538Z,16.88
2022-10-04T09:39:11.729Z,16.8
2022-10-04T09:39:56.737Z,16.4
2022-10-04T09:40:56.847Z,16.64
2022-10-04T09:41:56.947Z,16.72
2022-10-04T09:42:57.052Z,16.8
2022-10-04T09:43:57.194Z,16.8
2022-10-04T09:44:57.315Z,17.12
2022-10-04T09:45:57.487Z,17.2
2022-10-04T09:46:57.628Z,17.2
2022-10-04T09:47:57.705Z,17.44
2022-10-04T09:48:57.804Z,17.12
2022-10-04T09:49:57.936Z,17.2
2022-10-04T09:50:58.059Z,16.64
2022-10-04T09:51:58.158Z,16
2022-10-04T09:52:58.263Z,16.32
2022-10-04T09:53:58.419Z,16.08
2022-10-04T09:54:58.568Z,16.72
2022-10-04T09:55:58.668Z,16.72
2022-10-04T09:56:58.767Z,16.4
2022-10-04T09:57:58.869Z,16.32
2022-10-04T09:58:59.030Z,16
2022-10-04T09:59:59.188Z,16.64
2022-10-04T10:00:59.281Z,16.88
2022-10-04T10:01:59.493Z,16.72
2022-10-04T10:02:59.626Z,16.8
2022-10-04T10:03:59.632Z,17.12
2022-10-04T10:04:59.735Z,16.48
2022-10-04T10:05:59.840Z,16.48
2022-10-04T10:06:59.989Z,17.04
2022-10-04T10:08:00.124Z,16.8
2022-10-04T10:09:00.243Z,16.64
2022-10-04T10:10:00.345Z,16.72
2022-10-04T10:11:00.493Z,17.2
2022-10-04T10:12:00.599Z,17.28
2022-10-04T10:13:00.750Z,17.52
2022-10-04T10:14:00.849Z,17.44
2022-10-04T10:15:00.976Z,17.68
2022-10-04T10:16:01.163Z,18.32
2022-10-04T10:17:01.255Z,17.28
2022-10-04T10:18:01.355Z,17.44
2022-10-04T10:19:01.460Z,17.68
2022-10-04T10:20:01.607Z,17.44
2022-10-04T10:21:01.763Z,17.6
2022-10-04T10:22:01.874Z,18
2022-10-04T10:23:02.009Z,18.72
2022-10-04T10:24:02.119Z,18.4
2022-10-04T10:25:02.215Z,18.48
2022-10-04T10:26:02.317Z,19.04
2022-10-04T10:27:02.422Z,18.48
2022-10-04T10:28:02.569Z,16.88
2022-10-04T10:29:02.644Z,17.76
2022-10-04T10:30:02.734Z,18.24
2022-10-04T10:31:02.864Z,18.72
2022-10-04T10:32:02.928Z,17.68
2022-10-04T10:33:03.091Z,17.28
2022-10-04T10:34:03.233Z,17.76
2022-10-04T10:35:03.334Z,17.68
2022-10-04T10:36:03.483Z,17.28
2022-10-04T10:37:03.588Z,17.2
2022-10-04T10:38:04.557Z,17.6
2022-10-04T10:39:03.789Z,18.08
2022-10-04T10:40:03.950Z,18.4
2022-10-04T10:41:04.044Z,18.32
2022-10-04T10:42:04.148Z,18.32
2022-10-04T10:43:04.298Z,18.48
2022-10-04T10:44:04.455Z,18.64
2022-10-04T10:45:04.586Z,19.04
2022-10-04T10:46:04.776Z,19.68
2022-10-04T10:47:04.853Z,20.64
2022-10-04T10:48:05.008Z,19.92
2022-10-04T10:49:05.116Z,18.64
2022-10-04T10:50:05.211Z,19.12
2022-10-04T10:51:05.365Z,19.68
2022-10-04T10:52:05.464Z,20.24
2022-10-04T10:53:05.615Z,20.08
2022-10-04T10:54:05.725Z,20.4
2022-10-04T10:55:05.818Z,20.48
2022-10-04T10:56:05.928Z,21.6
2022-10-04T10:57:06.082Z,22.48
2022-10-04T10:58:06.176Z,22.08
2022-10-04T10:59:06.278Z,22.64
2022-10-04T11:00:06.448Z,22.4
2022-10-04T11:01:06.540Z,22.24
2022-10-04T11:02:06.773Z,22.4
2022-10-04T11:03:12.534Z,21.84
2022-10-04T11:04:07.005Z,22.4
2022-10-04T11:05:07.082Z,22.88
2022-10-04T11:06:07.244Z,22.48
2022-10-04T11:07:07.391Z,23.28
2022-10-04T11:08:07.541Z,23.84
2022-10-04T11:09:07.643Z,23.52
2022-10-04T11:10:07.793Z,23.28
2022-10-04T11:11:07.891Z,23.12
2022-10-04T11:12:08.045Z,23.28
2022-10-04T11:13:08.146Z,23.44
2022-10-04T11:14:08.301Z,23.52
2022-10-04T11:15:08.419Z,23.12
2022-10-04T11:16:08.601Z,21.52
2022-10-04T11:17:08.711Z,22.24
2022-10-04T11:18:08.807Z,22.48
2022-10-04T11:19:08.960Z,19.52
2022-10-04T11:20:09.089Z,21.2
2022-10-04T11:21:09.164Z,22.08
2022-10-04T11:22:09.273Z,24
2022-10-04T11:23:09.370Z,24.48
2022-10-04T11:24:09.470Z,24.32
2022-10-04T11:25:09.568Z,24.24
2022-10-04T11:26:09.680Z,24.24
2022-10-04T11:27:09.787Z,25.2
2022-10-04T11:28:09.905Z,23.52
2022-10-04T11:29:09.982Z,24
2022-10-04T11:30:10.149Z,24.72
2022-10-04T11:31:10.297Z,21.84
2022-10-04T11:32:10.430Z,22.08
2022-10-04T11:33:10.535Z,23.28
2022-10-04T11:34:14.429Z,24
2022-10-04T11:35:10.836Z,25.2
2022-10-04T11:36:11.001Z,23.52
2022-10-04T11:37:11.138Z,23.04
2022-10-04T11:38:11.257Z,23.84
2022-10-04T11:39:11.392Z,24.08
2022-10-04T11:40:11.546Z,24
2022-10-04T11:41:11.647Z,22.24
2022-10-04T11:42:11.746Z,23.52
2022-10-04T11:43:11.896Z,20.64
2022-10-04T11:44:12.050Z,21.04
2022-10-04T11:45:12.159Z,22.72
2022-10-04T11:46:12.359Z,23.44
2022-10-04T11:47:12.502Z,23.12
2022-10-04T11:48:12.605Z,22.4
2022-10-04T11:49:12.720Z,23.28
2022-10-04T11:50:12.896Z,22.4
2022-10-04T11:51:13.010Z,21.12
2022-10-04T11:52:13.114Z,21.92
2022-10-04T11:53:13.263Z,22.32
2022-10-04T11:54:13.418Z,20.24
2022-10-04T11:55:13.514Z,19.52
2022-10-04T11:56:13.676Z,19.92
2022-10-04T11:57:13.770Z,22.32
2022-10-04T11:58:13.871Z,21.28
2022-10-04T11:59:13.978Z,20.4
2022-10-04T12:00:14.076Z,21.28
2022-10-04T12:01:14.206Z,21.68
2022-10-04T12:02:14.380Z,22.8
2022-10-04T12:03:14.509Z,22.48
2022-10-04T12:04:14.808Z,22.64
2022-10-04T12:05:14.790Z,23.04
2022-10-04T12:06:14.955Z,23.04
2022-10-04T12:07:15.041Z,21.92
2022-10-04T12:08:15.192Z,23.28
2022-10-04T12:09:15.336Z,23.52
2022-10-04T12:10:15.447Z,22.72
2022-10-04T12:11:15.550Z,20.64
2022-10-04T12:12:15.645Z,22.24
2022-10-04T12:13:15.751Z,23.04
2022-10-04T12:14:15.850Z,24.48
2022-10-04T12:15:15.958Z,23.44
2022-10-04T12:16:16.179Z,23.84
2022-10-04T12:17:16.257Z,23.44
2022-10-04T12:18:16.360Z,24.64
2022-10-04T12:19:16.464Z,23.28
2022-10-04T12:20:16.610Z,22.88
2022-10-04T12:21:16.765Z,23.52
2022-10-04T12:22:16.914Z,23.12
2022-10-04T12:23:17.071Z,22.48
2022-10-04T12:24:17.221Z,22.72
2022-10-04T12:25:17.318Z,22.4
2022-10-04T12:26:19.208Z,22.64
2022-10-04T12:27:17.577Z,22.08
2022-10-04T12:28:17.760Z,23.44
2022-10-04T12:29:17.788Z,23.28
2022-10-04T12:30:17.926Z,21.2
2022-10-04T12:31:18.133Z,21.92
2022-10-04T12:32:18.229Z,23.44
2022-10-04T12:33:18.337Z,23.44
2022-10-04T12:34:18.482Z,22.48
2022-10-04T12:35:18.588Z,22.72
2022-10-04T12:36:18.689Z,22.08
2022-10-04T12:37:18.792Z,22.48
2022-10-04T12:38:18.944Z,23.6
2022-10-04T12:39:19.044Z,22.08
2022-10-04T12:40:19.196Z,22.4
2022-10-04T12:41:19.296Z,22.8
2022-10-04T12:42:19.398Z,23.04
2022-10-04T12:43:19.502Z,23.28
2022-10-04T12:44:19.660Z,22.4
2022-10-04T12:45:19.756Z,21.2
2022-10-04T12:46:19.948Z,22.32
2022-10-04T12:47:20.008Z,22.72
2022-10-04T12:48:20.107Z,21.84
2022-10-04T12:49:20.262Z,21.44
2022-10-04T12:50:20.363Z,20.48
2022-10-04T12:51:20.461Z,20.08
2022-10-04T12:52:20.565Z,19.04
2022-10-04T12:53:20.665Z,18.72
2022-10-04T12:54:20.772Z,19.12
2022-10-04T12:55:20.925Z,19.28
2022-10-04T12:56:21.023Z,18.48
2022-10-04T12:57:21.123Z,18
2022-10-04T12:58:21.236Z,18.64